Time;durP1;ratioP1;P1;durP2;ratioP2;P2;SDS_P1;SDS_P2;PMS_P1;PMS_P2;Temp;Humidity;BMP_temperature;BMP_pressure;BME280_temperature;BME280_humidity;BME280_pressure;Samples;Min_cycle;Max_cycle;Signal;HPM_P1;HPM_P2
2021/03/26 05:00:43;;;;;;;16.60;14.20;;;7.70;99.90;;;;;;5910813;23;20293;-67
2021/03/26 05:03:14;;;;;;;17.33;14.27;;;7.70;99.90;;;;;;5000195;28;20450;-68
2021/03/26 05:05:46;;;;;;;16.37;14.73;;;7.70;99.90;;;;;;4995990;28;20438;-69
2021/03/26 05:08:14;;;;;;;18.10;14.03;;;7.70;99.90;;;;;;4995953;28;20434;-68
2021/03/26 05:10:41;;;;;;;19.37;14.23;;;7.70;99.90;;;;;;5004291;23;20485;-67
2021/03/26 05:13:12;;;;;;;19.33;15.27;;;7.70;99.90;;;;;;4995619;28;20473;-66
2021/03/26 05:15:45;;;;;;;17.73;14.00;;;7.70;99.90;;;;;;4995317;28;20975;-68
2021/03/26 05:18:17;;;;;;;17.87;14.20;;;7.70;99.90;;;;;;4995174;28;20980;-67
2021/03/26 05:20:49;;;;;;;18.37;15.20;;;7.70;99.90;;;;;;4995377;28;20988;-66
2021/03/26 05:23:21;;;;;;;15.73;13.93;;;7.50;99.90;;;;;;4995441;28;20454;-67
2021/03/26 05:25:50;;;;;;;18.50;14.03;;;7.40;99.90;;;;;;4995514;28;20438;-67
2021/03/26 05:28:20;;;;;;;15.10;13.07;;;7.30;99.90;;;;;;4995437;28;20454;-67
2021/03/26 05:30:49;;;;;;;19.90;14.70;;;7.10;99.90;;;;;;4995319;28;20474;-67
2021/03/26 05:33:19;;;;;;;18.20;15.07;;;7.10;99.90;;;;;;4995323;28;20458;-67
2021/03/26 05:35:52;;;;;;;16.93;14.10;;;6.90;99.90;;;;;;4995011;28;20446;-67
2021/03/26 05:38:21;;;;;;;17.97;14.37;;;6.90;99.90;;;;;;4994823;28;20475;-67
2021/03/26 05:41:27;;;;;;;17.13;13.70;;;6.90;99.90;;;;;;4999450;28;20473;-66
2021/03/26 05:44:14;;;;;;;22.73;15.03;;;6.90;99.90;;;;;;5001891;28;20468;-66
2021/03/26 05:46:52;;;;;;;20.80;15.07;;;6.80;99.90;;;;;;4999497;28;20945;-67
2021/03/26 05:49:25;;;;;;;19.60;14.43;;;6.90;99.90;;;;;;5002236;28;20473;-66
2021/03/26 05:52:05;;;;;;;15.87;14.17;;;6.90;99.90;;;;;;5000322;28;20446;-67
2021/03/26 05:54:48;;;;;;;19.17;15.30;;;7.00;99.90;;;;;;5000562;28;20426;-67
2021/03/26 05:57:24;;;;;;;16.80;15.00;;;7.00;99.90;;;;;;5000956;28;20462;-67
2021/03/26 06:00:12;;;;;;;15.53;13.90;;;7.10;99.90;;;;;;5002210;28;20481;-67
2021/03/26 06:03:15;;;;;;;18.83;13.80;;;7.10;99.90;;;;;;4981083;28;20924;-67
2021/03/26 06:06:03;;;;;;;18.77;14.73;;;7.20;99.90;;;;;;5002692;28;20461;-66
2021/03/26 06:08:47;;;;;;;14.97;13.03;;;7.30;99.90;;;;;;5000102;28;20438;-66
2021/03/26 06:11:37;;;;;;;18.93;13.83;;;7.50;99.90;;;;;;4994246;28;20469;-66
2021/03/26 06:14:20;;;;;;;17.00;12.93;;;7.70;99.90;;;;;;4994425;28;20442;-66
2021/03/26 06:17:19;;;;;;;17.60;13.90;;;7.80;99.90;;;;;;4994746;28;20442;-66
2021/03/26 06:20:05;;;;;;;18.40;12.17;;;7.90;99.90;;;;;;4994541;28;20549;-66
2021/03/26 06:23:06;;;;;;;17.03;12.97;;;8.40;99.90;;;;;;4994443;28;20445;-66
2021/03/26 06:25:53;;;;;;;17.10;13.80;;;8.70;99.90;;;;;;4994443;28;20909;-66
2021/03/26 06:28:29;;;;;;;21.33;13.80;;;8.90;99.90;;;;;;4995440;28;20438;-66
2021/03/26 06:31:26;;;;;;;20.30;13.80;;;9.00;99.90;;;;;;4994308;28;20461;-65
2021/03/26 06:34:43;;;;;;;18.53;14.03;;;9.10;99.90;;;;;;4994329;28;20496;-64
2021/03/26 06:37:30;;;;;;;16.40;14.63;;;9.30;99.90;;;;;;4935111;29;20464;-65
2021/03/26 06:40:15;;;;;;;17.43;14.77;;;9.10;99.90;;;;;;4994333;28;20481;-65
2021/03/26 06:43:03;;;;;;;15.93;14.10;;;9.00;99.90;;;;;;4994145;28;20921;-66
2021/03/26 06:45:44;;;;;;;19.80;16.20;;;9.10;99.90;;;;;;4994458;28;20458;-65
2021/03/26 06:48:21;;;;;;;19.50;14.60;;;9.30;99.90;;;;;;4993916;28;20433;-65
2021/03/26 06:51:14;;;;;;;17.73;15.60;;;9.40;99.90;;;;;;4993988;28;20477;-66
2021/03/26 06:53:51;;;;;;;17.37;15.07;;;9.60;99.90;;;;;;4994161;28;20442;-66
2021/03/26 06:56:46;;;;;;;19.83;15.33;;;9.80;99.90;;;;;;4994324;28;20456;-66
2021/03/26 06:59:42;;;;;;;17.37;13.60;;;10.50;99.90;;;;;;4994405;28;20821;-66
2021/03/26 07:02:36;;;;;;;19.27;14.90;;;11.40;99.90;;;;;;4994494;28;20441;-66
2021/03/26 07:05:20;;;;;;;17.07;15.20;;;12.40;99.90;;;;;;4964855;28;20457;-66
2021/03/26 07:08:09;;;;;;;24.90;16.60;;;12.90;99.90;;;;;;4997915;28;20530;-66
2021/03/26 07:10:41;;;;;;;17.30;15.40;;;13.10;99.90;;;;;;4995190;28;20488;-66
2021/03/26 07:13:35;;;;;;;17.67;15.93;;;13.40;99.90;;;;;;4997688;28;20445;-66
2021/03/26 07:16:14;;;;;;;17.03;15.33;;;13.60;99.90;;;;;;5001104;28;20916;-66
2021/03/26 07:19:06;;;;;;;19.90;15.43;;;13.90;99.90;;;;;;4997593;28;20473;-66
2021/03/26 07:21:45;;;;;;;16.67;14.97;;;14.30;99.90;;;;;;4997605;28;20912;-67
2021/03/26 07:24:57;;;;;;;16.93;15.13;;;15.00;99.90;;;;;;4997618;28;20433;-67
2021/03/26 07:27:34;;;;;;;17.60;15.80;;;15.40;99.90;;;;;;4997770;28;20438;-66
2021/03/26 07:30:30;;;;;;;20.43;16.07;;;15.30;99.90;;;;;;4997657;28;20495;-65
2021/03/26 07:33:18;;;;;;;20.73;17.00;;;15.30;99.90;;;;;;4997605;28;20472;-65
2021/03/26 07:36:24;;;;;;;24.13;16.10;;;15.50;99.90;;;;;;4997527;28;20438;-65
2021/03/26 07:39:18;;;;;;;17.10;15.40;;;15.30;99.90;;;;;;4997023;28;20476;-66
2021/03/26 07:42:21;;;;;;;16.90;15.20;;;15.90;99.90;;;;;;4996917;28;20913;-67
2021/03/26 07:45:10;;;;;;;17.07;14.90;;;16.30;99.90;;;;;;4997381;28;20480;-66
2021/03/26 07:47:48;;;;;;;16.80;14.13;;;16.90;99.90;;;;;;4997735;28;20901;-66
2021/03/26 07:50:29;;;;;;;18.07;16.10;;;16.90;99.90;;;;;;4996956;28;21058;-65
2021/03/26 07:53:11;;;;;;;14.70;13.30;;;17.50;99.00;;;;;;4996918;28;20585;-66
2021/03/26 07:55:40;;;;;;;17.93;14.70;;;18.10;96.70;;;;;;4997120;28;20438;-66
2021/03/26 07:58:49;;;;;;;16.90;15.13;;;18.60;94.80;;;;;;4996845;28;20477;-65
2021/03/26 08:01:29;;;;;;;15.17;13.67;;;19.40;93.80;;;;;;4971461;28;20532;-65
2021/03/26 08:04:23;;;;;;;15.43;13.93;;;20.00;90.90;;;;;;4996891;28;20438;-66
2021/03/26 08:07:30;;;;;;;21.20;16.00;;;20.20;90.70;;;;;;4983316;28;20457;-65
2021/03/26 08:10:29;;;;;;;22.00;14.53;;;20.80;87.50;;;;;;4996341;28;20492;-66
2021/03/26 08:13:20;;;;;;;16.60;14.83;;;21.20;84.70;;;;;;4976243;28;20464;-65
2021/03/26 08:16:06;;;;;;;15.73;14.20;;;21.80;81.60;;;;;;4967669;28;20454;-65
2021/03/26 08:18:48;;;;;;;13.77;12.27;;;21.00;79.90;;;;;;4996763;28;20469;-65
2021/03/26 08:21:19;;;;;;;16.87;12.40;;;21.50;79.80;;;;;;4997891;28;20437;-65
2021/03/26 08:23:59;;;;;;;14.93;13.43;;;21.90;76.60;;;;;;4996380;28;20489;-66
2021/03/26 08:26:38;;;;;;;13.70;12.60;;;22.20;77.90;;;;;;4995848;28;20975;-66
2021/03/26 08:29:26;;;;;;;13.50;12.17;;;21.20;76.40;;;;;;4995939;28;20434;-66
2021/03/26 08:32:19;;;;;;;14.30;12.83;;;21.90;75.40;;;;;;4996141;28;20492;-67
2021/03/26 08:35:26;;;;;;;13.30;11.87;;;21.90;74.20;;;;;;4986157;28;20454;-67
2021/03/26 08:38:06;;;;;;;12.50;10.90;;;22.10;74.30;;;;;;4996775;28;20473;-66
2021/03/26 08:40:45;;;;;;;12.80;11.73;;;22.90;69.20;;;;;;4995770;28;20892;-70
2021/03/26 08:43:13;;;;;;;13.30;11.90;;;21.90;73.10;;;;;;4996186;28;20909;-66
2021/03/26 08:45:44;;;;;;;15.10;11.23;;;21.10;76.60;;;;;;5001300;28;20477;-65
2021/03/26 08:48:23;;;;;;;14.43;11.70;;;22.40;74.60;;;;;;4999137;28;20430;-66
2021/03/26 08:50:56;;;;;;;13.57;12.27;;;23.00;75.60;;;;;;4996134;28;20527;-66
2021/03/26 08:53:35;;;;;;;13.10;11.90;;;23.80;68.20;;;;;;4996018;28;20442;-65
2021/03/26 08:56:21;;;;;;;13.07;11.97;;;22.90;67.00;;;;;;4996096;28;20442;-67
2021/03/26 08:59:07;;;;;;;13.23;11.93;;;23.30;69.00;;;;;;4995931;28;20466;-66
2021/03/26 09:02:01;;;;;;;13.13;11.87;;;24.20;65.40;;;;;;4995558;28;20444;-66
2021/03/26 09:04:51;;;;;;;13.87;12.67;;;24.60;61.10;;;;;;4995828;28;20445;-67
2021/03/26 09:07:29;;;;;;;17.20;12.80;;;25.20;61.30;;;;;;4995936;28;20442;-66
2021/03/26 09:10:18;;;;;;;12.87;11.67;;;25.50;58.70;;;;;;4995547;28;20488;-67
2021/03/26 09:12:58;;;;;;;11.80;10.70;;;25.50;57.20;;;;;;4995926;28;20442;-66
2021/03/26 09:15:45;;;;;;;13.23;11.97;;;25.60;58.50;;;;;;4995702;28;20446;-67
2021/03/26 09:18:22;;;;;;;12.40;11.30;;;26.20;57.30;;;;;;4995938;28;20465;-67
2021/03/26 09:20:58;;;;;;;13.13;11.97;;;26.30;54.90;;;;;;4995521;28;20472;-66
2021/03/26 09:23:53;;;;;;;12.83;11.50;;;25.50;55.10;;;;;;4995368;28;20460;-66
2021/03/26 09:26:38;;;;;;;13.70;12.30;;;24.90;58.00;;;;;;4985153;28;20457;-66
2021/03/26 09:29:08;;;;;;;12.00;10.80;;;24.90;60.40;;;;;;4994513;28;20446;-66
2021/03/26 09:31:42;;;;;;;20.40;12.37;;;25.70;56.00;;;;;;4994989;28;20438;-66
2021/03/26 09:34:21;;;;;;;13.50;12.20;;;25.90;55.60;;;;;;4995036;28;20448;-66
2021/03/26 09:37:06;;;;;;;13.13;11.80;;;26.30;57.00;;;;;;4995557;28;20446;-66
2021/03/26 09:39:34;;;;;;;11.40;10.40;;;25.70;58.80;;;;;;4994886;28;20493;-65
2021/03/26 09:42:13;;;;;;;14.50;11.87;;;26.10;55.00;;;;;;4994845;28;20458;-64
2021/03/26 09:44:46;;;;;;;15.30;13.80;;;25.50;54.80;;;;;;4995020;28;20437;-66
2021/03/26 09:47:18;;;;;;;17.73;13.53;;;25.70;57.10;;;;;;4995519;28;20489;-65
2021/03/26 09:49:50;;;;;;;15.73;12.67;;;25.60;55.70;;;;;;4995297;28;20473;-65
2021/03/26 09:52:23;;;;;;;14.47;13.17;;;26.10;55.20;;;;;;4994774;28;20438;-65
2021/03/26 09:54:51;;;;;;;14.63;13.13;;;26.60;55.90;;;;;;4995032;28;20473;-66
2021/03/26 09:57:32;;;;;;;13.23;12.03;;;27.20;56.10;;;;;;4994328;28;20466;-66
2021/03/26 10:00:24;;;;;;;12.30;11.10;;;27.10;50.90;;;;;;4994435;28;21039;-65
2021/03/26 10:03:06;;;;;;;12.13;11.10;;;27.60;52.50;;;;;;5006202;28;20457;-65
2021/03/26 10:05:43;;;;;;;12.80;11.60;;;28.10;49.70;;;;;;5005458;28;20441;-66
2021/03/26 10:11:05;;;;;;;12.37;11.27;;;28.00;50.50;;;;;;4994051;28;20568;-66
2021/03/26 10:13:41;;;;;;;14.73;13.40;;;28.30;49.20;;;;;;4994626;28;20433;-66
2021/03/26 10:16:10;;;;;;;13.37;12.07;;;28.50;48.50;;;;;;4999163;28;20460;-67
2021/03/26 10:18:40;;;;;;;13.60;12.30;;;27.60;49.40;;;;;;5002775;28;20466;-66
2021/03/26 10:21:12;;;;;;;15.87;12.87;;;27.30;50.60;;;;;;4994604;28;20554;-66
2021/03/26 10:23:47;;;;;;;15.00;13.50;;;27.60;48.70;;;;;;4994628;28;20449;-66
2021/03/26 10:26:18;;;;;;;14.17;12.97;;;26.30;50.90;;;;;;4994455;28;20437;-66
2021/03/26 10:29:02;;;;;;;12.60;11.50;;;26.70;51.20;;;;;;4994473;28;20438;-66
2021/03/26 10:31:34;;;;;;;16.63;12.00;;;27.30;49.00;;;;;;4994402;28;20442;-66
2021/03/26 10:34:03;;;;;;;14.83;13.23;;;27.40;49.00;;;;;;4994769;28;20450;-66
2021/03/26 10:36:41;;;;;;;15.57;12.20;;;27.30;48.70;;;;;;4994827;28;20458;-67
2021/03/26 10:39:10;;;;;;;15.03;13.50;;;26.60;51.50;;;;;;4996267;28;20472;-67
2021/03/26 10:41:51;;;;;;;13.97;12.53;;;26.50;53.90;;;;;;4999762;28;20534;-66
2021/03/26 10:44:27;;;;;;;14.47;13.07;;;26.70;50.30;;;;;;4998497;28;20477;-67
2021/03/26 10:47:04;;;;;;;13.60;12.30;;;27.10;53.00;;;;;;4998178;28;20808;-67
2021/03/26 10:49:38;;;;;;;15.03;13.13;;;26.90;48.90;;;;;;4997920;28;20480;-67
2021/03/26 10:52:09;;;;;;;13.20;12.00;;;26.20;50.60;;;;;;4999914;28;20437;-67
2021/03/26 10:54:46;;;;;;;13.57;12.27;;;27.10;50.90;;;;;;4999402;28;20446;-67
2021/03/26 10:57:29;;;;;;;19.53;14.80;;;27.50;49.50;;;;;;5001227;28;20473;-68
2021/03/26 11:00:20;;;;;;;15.77;14.37;;;27.70;50.40;;;;;;4997958;28;20488;-68
2021/03/26 11:03:10;;;;;;;15.43;13.93;;;26.70;48.70;;;;;;4991005;28;20493;-68
2021/03/26 11:05:51;;;;;;;16.13;14.30;;;26.10;52.00;;;;;;4997695;28;20442;-68
2021/03/26 11:08:35;;;;;;;14.00;12.70;;;24.40;54.20;;;;;;4997808;28;20438;-68
2021/03/26 11:11:06;;;;;;;12.90;11.60;;;24.90;52.80;;;;;;4996642;28;20467;-67
2021/03/26 11:13:52;;;;;;;14.17;12.50;;;24.60;54.30;;;;;;5012081;23;20222;-64
2021/03/26 11:16:22;;;;;;;13.30;12.07;;;24.60;53.20;;;;;;4998742;28;20445;-65
2021/03/26 11:18:57;;;;;;;13.03;11.67;;;24.00;53.20;;;;;;4998219;28;20466;-65
2021/03/26 11:21:25;;;;;;;16.83;11.87;;;23.80;54.60;;;;;;4997579;28;20495;-65
2021/03/26 11:23:57;;;;;;;13.17;11.87;;;23.20;58.00;;;;;;4997328;28;20995;-65
2021/03/26 11:26:30;;;;;;;15.63;12.60;;;22.70;56.40;;;;;;4997867;28;20458;-65
2021/03/26 11:29:05;;;;;;;16.60;11.03;;;22.30;56.90;;;;;;4998369;28;20445;-65
2021/03/26 11:31:35;;;;;;;10.33;9.10;;;22.00;57.90;;;;;;4997712;28;20441;-65
2021/03/26 11:34:24;;;;;;;11.93;9.80;;;21.70;56.50;;;;;;4997342;28;21049;-65
2021/03/26 11:37:00;;;;;;;14.67;8.80;;;21.70;57.80;;;;;;4997459;28;20438;-64
2021/03/26 11:39:32;;;;;;;12.60;10.60;;;21.90;56.40;;;;;;4997863;28;20461;-65
2021/03/26 11:42:21;;;;;;;11.90;10.40;;;22.00;55.30;;;;;;4997137;28;20442;-65
2021/03/26 11:44:54;;;;;;;12.57;10.07;;;21.60;57.50;;;;;;4983347;28;20854;-64
2021/03/26 11:47:33;;;;;;;11.27;10.07;;;21.50;58.00;;;;;;4997109;28;20195;-64
2021/03/26 11:50:06;;;;;;;12.33;9.40;;;21.30;58.90;;;;;;4996043;28;20445;-65
2021/03/26 11:52:42;;;;;;;10.77;9.73;;;21.30;55.80;;;;;;4996512;28;20438;-65
2021/03/26 11:55:19;;;;;;;9.57;8.13;;;21.80;56.10;;;;;;4996726;28;20506;-65
2021/03/26 11:57:54;;;;;;;11.07;8.70;;;22.00;57.50;;;;;;4997410;28;20462;-65
2021/03/26 12:00:23;;;;;;;10.80;9.27;;;22.10;54.80;;;;;;4997455;28;20770;-64
2021/03/26 12:03:04;;;;;;;10.27;8.30;;;21.00;57.30;;;;;;4997784;28;20564;-65
2021/03/26 12:06:01;;;;;;;9.33;8.10;;;20.80;57.30;;;;;;4997191;28;20956;-65
2021/03/26 12:08:31;;;;;;;11.37;7.73;;;20.70;55.60;;;;;;4997383;28;20437;-65
2021/03/26 12:11:02;;;;;;;9.50;8.50;;;20.40;56.30;;;;;;4996768;28;20449;-65
2021/03/26 12:13:35;;;;;;;8.03;7.23;;;20.20;56.60;;;;;;4996337;28;20896;-65
2021/03/26 12:16:09;;;;;;;8.07;7.27;;;20.60;59.10;;;;;;4996454;28;20442;-64
2021/03/26 12:18:46;;;;;;;7.03;6.40;;;20.80;58.70;;;;;;4996443;28;20466;-64
2021/03/26 12:21:21;;;;;;;8.10;6.40;;;21.40;53.00;;;;;;4996345;28;20438;-64
2021/03/26 12:23:50;;;;;;;8.57;6.00;;;21.40;53.00;;;;;;4996408;28;20535;-65
2021/03/26 12:26:23;;;;;;;8.93;6.40;;;21.30;53.80;;;;;;4996154;28;20464;-65
2021/03/26 12:29:15;;;;;;;6.77;6.27;;;21.20;53.80;;;;;;4995967;28;20439;-64
2021/03/26 12:31:46;;;;;;;8.20;6.23;;;21.10;56.20;;;;;;4996528;28;20442;-65
2021/03/26 12:34:26;;;;;;;13.03;6.63;;;21.40;54.30;;;;;;4996195;28;20488;-64
2021/03/26 12:36:58;;;;;;;10.80;7.00;;;21.40;53.40;;;;;;4998279;28;20441;-65
2021/03/26 12:39:30;;;;;;;7.90;7.20;;;21.60;54.70;;;;;;5001433;28;20465;-65
2021/03/26 12:42:05;;;;;;;7.30;6.60;;;21.60;53.60;;;;;;5001083;28;20446;-65
2021/03/26 12:44:36;;;;;;;7.43;6.73;;;21.70;55.40;;;;;;4995819;28;20979;-65
2021/03/26 12:47:13;;;;;;;8.07;7.37;;;22.00;53.20;;;;;;4996560;28;20801;-64
2021/03/26 12:49:53;;;;;;;8.80;8.00;;;22.00;53.50;;;;;;4997203;28;20434;-64
2021/03/26 12:52:40;;;;;;;7.63;6.93;;;21.90;53.50;;;;;;4996794;28;20445;-66
2021/03/26 12:55:13;;;;;;;6.73;6.03;;;21.80;52.90;;;;;;4996284;28;20438;-66
2021/03/26 12:57:46;;;;;;;7.30;6.60;;;22.00;53.70;;;;;;4995681;28;20968;-66
2021/03/26 13:00:15;;;;;;;7.50;6.80;;;22.20;54.50;;;;;;4997464;28;20442;-64
2021/03/26 13:02:52;;;;;;;8.73;6.30;;;22.30;52.40;;;;;;4998133;28;20457;-64
2021/03/26 13:05:23;;;;;;;9.57;6.73;;;21.30;52.80;;;;;;4999637;28;20438;-66
2021/03/26 13:08:01;;;;;;;7.73;5.90;;;21.70;53.90;;;;;;4998233;28;20445;-64
2021/03/26 13:10:52;;;;;;;9.57;7.30;;;21.10;52.10;;;;;;4997567;28;20473;-64
2021/03/26 13:13:40;;;;;;;8.43;6.90;;;21.30;53.20;;;;;;4992327;28;20492;-64
2021/03/26 13:16:23;;;;;;;6.17;5.57;;;21.10;53.20;;;;;;4996861;28;20442;-65
2021/03/26 13:18:52;;;;;;;8.10;6.03;;;21.00;53.90;;;;;;4997089;28;20472;-65
2021/03/26 13:21:36;;;;;;;8.47;7.53;;;21.10;55.10;;;;;;4997897;28;20454;-65
2021/03/26 13:24:37;;;;;;;9.60;7.47;;;21.20;54.10;;;;;;4998077;28;20478;-65
2021/03/26 13:27:37;;;;;;;6.07;5.57;;;21.60;55.20;;;;;;4998247;28;20441;-65
2021/03/26 13:30:28;;;;;;;6.27;5.60;;;21.70;54.30;;;;;;4997464;28;20561;-65
2021/03/26 13:33:10;;;;;;;7.90;6.87;;;21.80;54.90;;;;;;4997678;28;20453;-65
2021/03/26 13:35:41;;;;;;;8.40;6.80;;;21.80;55.30;;;;;;4998650;28;20464;-65
2021/03/26 13:38:40;;;;;;;7.60;6.10;;;21.90;55.80;;;;;;4997203;28;20545;-64
2021/03/26 13:41:16;;;;;;;10.43;6.20;;;21.80;55.20;;;;;;4997254;28;20533;-64
2021/03/26 13:43:43;;;;;;;6.33;5.70;;;22.00;56.20;;;;;;4997142;28;20481;-63
2021/03/26 13:46:21;;;;;;;7.97;5.80;;;22.10;53.90;;;;;;4996585;28;20458;-64
2021/03/26 13:48:50;;;;;;;6.17;5.67;;;22.40;54.30;;;;;;4997238;28;20460;-64
2021/03/26 13:51:19;;;;;;;5.33;4.90;;;22.40;56.20;;;;;;4996784;28;20454;-64
2021/03/26 13:53:50;;;;;;;7.77;5.90;;;22.00;54.20;;;;;;4996770;28;20473;-65
2021/03/26 13:56:20;;;;;;;5.93;5.33;;;21.60;52.80;;;;;;4997170;28;20465;-65
2021/03/26 13:58:50;;;;;;;6.13;4.30;;;21.60;55.20;;;;;;4997143;28;20477;-65
2021/03/26 14:01:26;;;;;;;5.23;4.73;;;21.30;53.50;;;;;;4997974;28;20510;-64
2021/03/26 14:04:13;;;;;;;4.63;4.20;;;21.10;55.10;;;;;;4998144;28;20492;-64
2021/03/26 14:06:46;;;;;;;6.83;4.87;;;21.20;57.60;;;;;;4998190;28;20442;-64
2021/03/26 14:09:24;;;;;;;6.00;5.50;;;21.20;56.50;;;;;;5001405;28;20434;-64
2021/03/26 14:11:55;;;;;;;4.90;4.50;;;21.00;54.10;;;;;;4999616;28;20505;-64
2021/03/26 14:14:28;;;;;;;5.20;4.70;;;20.50;56.40;;;;;;4996530;28;20492;-64
2021/03/26 14:16:57;;;;;;;5.30;4.63;;;20.60;57.70;;;;;;4997591;28;20449;-65
2021/03/26 14:19:38;;;;;;;6.90;5.23;;;20.70;56.60;;;;;;4997360;28;20541;-65
2021/03/26 14:22:22;;;;;;;10.27;4.70;;;20.80;57.80;;;;;;4997316;28;20946;-65
2021/03/26 14:25:07;;;;;;;6.87;5.30;;;20.80;57.20;;;;;;4995827;28;20549;-65
2021/03/26 14:27:43;;;;;;;6.40;4.23;;;20.70;58.70;;;;;;5004997;28;20528;-65
2021/03/26 14:30:18;;;;;;;5.60;4.27;;;20.70;55.20;;;;;;4997062;28;20452;-64
2021/03/26 14:33:07;;;;;;;8.30;4.37;;;20.70;56.50;;;;;;4997382;28;20442;-64
2021/03/26 14:35:38;;;;;;;4.73;4.23;;;20.80;57.40;;;;;;4989014;28;20454;-65
2021/03/26 14:38:33;;;;;;;6.20;4.23;;;21.00;58.80;;;;;;4996556;28;20480;-64
2021/03/26 14:41:13;;;;;;;4.53;4.17;;;21.00;56.60;;;;;;4995499;28;20941;-65
2021/03/26 14:43:41;;;;;;;5.00;3.60;;;21.40;55.80;;;;;;4994544;28;20481;-65
2021/03/26 14:46:08;;;;;;;4.30;3.90;;;21.60;54.20;;;;;;4994867;28;20461;-65
2021/03/26 14:48:40;;;;;;;5.30;4.30;;;21.80;54.00;;;;;;4999719;28;20461;-65
2021/03/26 14:51:11;;;;;;;5.47;4.13;;;22.00;56.00;;;;;;5012985;28;20442;-65
2021/03/26 14:53:39;;;;;;;5.47;3.77;;;22.10;55.50;;;;;;5008580;28;20489;-65
2021/03/26 14:56:09;;;;;;;4.73;4.33;;;22.30;54.40;;;;;;4999268;28;20454;-65
2021/03/26 14:58:41;;;;;;;5.77;3.90;;;22.50;56.80;;;;;;4996382;28;20477;-64
2021/03/26 15:01:13;;;;;;;8.37;4.37;;;22.60;52.90;;;;;;4995944;28;20434;-64
2021/03/26 15:03:52;;;;;;;4.23;3.87;;;22.60;54.20;;;;;;4995386;28;20477;-64
2021/03/26 15:06:25;;;;;;;4.27;3.87;;;21.60;50.70;;;;;;4995011;28;20492;-66
2021/03/26 15:09:13;;;;;;;9.07;3.90;;;21.50;55.10;;;;;;4995483;28;20445;-64
2021/03/26 15:12:13;;;;;;;4.10;3.80;;;21.70;55.50;;;;;;4994623;28;20446;-63
2021/03/26 15:14:51;;;;;;;3.80;3.50;;;21.90;54.50;;;;;;4994274;28;20485;-64
2021/03/26 15:17:24;;;;;;;5.60;3.90;;;21.80;54.10;;;;;;4994372;28;20889;-64
2021/03/26 15:19:52;;;;;;;4.57;3.60;;;21.90;53.50;;;;;;4994282;28;20468;-64
2021/03/26 15:22:26;;;;;;;4.63;4.13;;;21.70;53.00;;;;;;4994368;28;20468;-65
2021/03/26 15:25:15;;;;;;;8.10;4.33;;;21.60;53.40;;;;;;4996470;28;20478;-63
2021/03/26 15:28:07;;;;;;;4.53;4.10;;;21.40;54.80;;;;;;4998425;28;20442;-63
2021/03/26 15:30:39;;;;;;;4.43;3.80;;;21.30;55.90;;;;;;4998082;28;20445;-64
2021/03/26 15:33:12;;;;;;;6.43;4.00;;;21.20;55.20;;;;;;4997748;28;20477;-64
2021/03/26 15:35:46;;;;;;;9.03;4.40;;;21.20;55.20;;;;;;4997527;28;20916;-64
2021/03/26 15:38:18;;;;;;;5.63;3.70;;;21.30;55.60;;;;;;4997806;28;20464;-63
2021/03/26 15:40:48;;;;;;;8.03;3.97;;;21.10;55.30;;;;;;4997689;28;20469;-63
2021/03/26 15:43:23;;;;;;;7.17;4.67;;;21.10;55.60;;;;;;5003907;28;20473;-64
2021/03/26 15:45:55;;;;;;;5.40;5.00;;;21.10;55.10;;;;;;5004626;28;20983;-64
2021/03/26 15:48:35;;;;;;;5.43;4.90;;;21.10;54.40;;;;;;4997671;28;20445;-65
2021/03/26 15:51:12;;;;;;;7.13;5.37;;;20.90;52.30;;;;;;4997442;28;20466;-65
2021/03/26 15:53:45;;;;;;;5.37;4.87;;;20.70;54.00;;;;;;4998222;28;20473;-64
2021/03/26 15:56:23;;;;;;;5.47;4.30;;;20.40;53.60;;;;;;4997726;28;20518;-64
2021/03/26 15:59:22;;;;;;;5.13;4.53;;;20.40;55.50;;;;;;4999270;28;20462;-63
2021/03/26 16:02:22;;;;;;;8.50;4.60;;;20.40;56.10;;;;;;4999911;28;20441;-66
2021/03/26 16:05:21;;;;;;;6.57;3.70;;;20.40;54.60;;;;;;4995500;28;20480;-65
2021/03/26 16:08:21;;;;;;;5.17;4.20;;;20.40;52.50;;;;;;5000276;28;20438;-66
2021/03/26 16:10:55;;;;;;;5.47;3.80;;;20.30;53.80;;;;;;4999718;28;20438;-67
2021/03/26 16:13:44;;;;;;;6.53;3.67;;;20.20;53.00;;;;;;4997368;28;21046;-65
2021/03/26 16:16:27;;;;;;;4.60;4.20;;;20.10;53.90;;;;;;4997856;28;20434;-65
2021/03/26 16:19:18;;;;;;;4.00;3.70;;;19.90;54.50;;;;;;4998958;28;20533;-64
2021/03/26 16:22:28;;;;;;;5.40;4.37;;;19.90;56.80;;;;;;4998212;28;20840;-64
2021/03/26 16:25:18;;;;;;;4.23;3.93;;;19.90;54.10;;;;;;4970268;28;20469;-65
2021/03/26 16:28:24;;;;;;;5.40;4.50;;;19.80;55.60;;;;;;4998848;28;20450;-65
2021/03/26 16:30:56;;;;;;;3.90;3.60;;;19.60;55.10;;;;;;4997513;28;20434;-65
2021/03/26 16:34:05;;;;;;;7.67;4.37;;;19.50;57.30;;;;;;4997184;28;20470;-65
2021/03/26 16:36:47;;;;;;;5.03;4.50;;;19.40;57.80;;;;;;4935888;29;20456;-65
2021/03/26 16:39:43;;;;;;;7.10;4.80;;;19.40;59.20;;;;;;4937752;29;20476;-69
2021/03/26 16:42:44;;;;;;;4.17;3.80;;;19.30;57.50;;;;;;4986726;28;20457;-65
2021/03/26 16:45:38;;;;;;;5.10;4.70;;;19.20;57.50;;;;;;4996803;28;20453;-64
2021/03/26 16:48:36;;;;;;;9.03;4.97;;;18.90;56.40;;;;;;4996702;28;20825;-65
2021/03/26 16:51:52;;;;;;;5.63;4.67;;;18.70;58.50;;;;;;4996767;28;20453;-65
2021/03/26 16:54:29;;;;;;;8.17;5.20;;;18.70;58.90;;;;;;4952511;28;20477;-64
2021/03/26 16:57:32;;;;;;;11.87;4.07;;;18.60;59.00;;;;;;5001716;28;20438;-66
2021/03/26 17:00:24;;;;;;;5.90;5.10;;;18.60;64.20;;;;;;4997049;28;20490;-66
2021/03/26 17:03:21;;;;;;;7.50;5.10;;;18.60;60.20;;;;;;4996011;28;20982;-65
2021/03/26 17:06:21;;;;;;;5.87;5.27;;;18.60;60.00;;;;;;4998192;28;20485;-66
2021/03/26 17:09:05;;;;;;;8.10;5.30;;;18.50;59.90;;;;;;4998694;28;20553;-66
2021/03/26 17:11:48;;;;;;;5.17;4.70;;;18.40;59.10;;;;;;4996927;28;20456;-66
2021/03/26 17:14:43;;;;;;;8.60;5.10;;;18.30;61.10;;;;;;4997514;28;20535;-66
2021/03/26 17:17:48;;;;;;;5.13;4.73;;;18.30;62.50;;;;;;5019964;28;20445;-66
2021/03/26 17:20:41;;;;;;;9.00;6.00;;;18.30;63.30;;;;;;5020002;28;20437;-66
2021/03/26 17:23:29;;;;;;;8.60;7.10;;;18.20;64.00;;;;;;5020099;28;20458;-65
2021/03/26 17:26:17;;;;;;;8.87;7.87;;;18.20;65.10;;;;;;5010273;28;20457;-65
2021/03/26 17:29:01;;;;;;;9.93;8.97;;;18.20;67.00;;;;;;4995779;28;20917;-65
2021/03/26 17:32:06;;;;;;;11.20;8.97;;;18.10;66.60;;;;;;5006746;28;20771;-65
2021/03/26 17:34:44;;;;;;;8.60;7.60;;;18.00;66.30;;;;;;4997009;28;20488;-66
2021/03/26 17:37:36;;;;;;;8.20;6.90;;;17.90;70.50;;;;;;4995703;28;20797;-65
2021/03/26 17:40:41;;;;;;;8.07;6.90;;;17.80;70.10;;;;;;4996621;28;20984;-66
2021/03/26 17:43:34;;;;;;;9.13;5.80;;;17.80;70.10;;;;;;4995834;28;20480;-66
2021/03/26 17:46:29;;;;;;;10.20;5.77;;;17.60;69.40;;;;;;4996246;28;20438;-66
2021/03/26 17:48:59;;;;;;;8.83;5.37;;;17.50;69.40;;;;;;4995150;28;20901;-66
2021/03/26 17:51:37;;;;;;;7.57;6.30;;;17.40;71.20;;;;;;4995993;28;20434;-65
2021/03/26 17:54:35;;;;;;;6.17;5.43;;;17.30;71.90;;;;;;4995896;28;20504;-66
2021/03/26 17:57:24;;;;;;;9.17;6.03;;;17.20;73.20;;;;;;4996689;28;20438;-66
2021/03/26 18:00:22;;;;;;;6.43;5.10;;;17.10;73.10;;;;;;4995897;28;20489;-65
2021/03/26 18:03:25;;;;;;;11.17;6.03;;;17.00;74.30;;;;;;4990802;28;20457;-66
2021/03/26 18:06:24;;;;;;;7.20;5.80;;;16.80;73.10;;;;;;4996047;28;20816;-66
2021/03/26 18:08:57;;;;;;;9.10;5.60;;;16.70;73.90;;;;;;4996630;28;20450;-65
2021/03/26 18:11:34;;;;;;;8.53;6.23;;;16.70;74.70;;;;;;4996273;28;20465;-65
2021/03/26 18:14:14;;;;;;;10.17;6.97;;;16.60;81.70;;;;;;4996073;28;21015;-66
2021/03/26 18:16:53;;;;;;;10.07;8.70;;;16.50;82.60;;;;;;4995805;28;20438;-65
2021/03/26 18:19:29;;;;;;;15.10;6.80;;;16.50;81.40;;;;;;4996044;28;20835;-64
2021/03/26 18:22:22;;;;;;;8.43;7.63;;;16.60;79.30;;;;;;4996576;28;20474;-65
2021/03/26 18:25:20;;;;;;;11.23;8.83;;;16.60;78.90;;;;;;4997029;28;20481;-65
2021/03/26 18:28:28;;;;;;;8.33;7.40;;;16.70;80.00;;;;;;4985794;28;20462;-69
2021/03/26 18:31:15;;;;;;;10.90;7.30;;;16.60;81.10;;;;;;4996419;28;20460;-65
2021/03/26 18:34:11;;;;;;;9.43;6.53;;;16.50;81.90;;;;;;4995552;28;20470;-66
2021/03/26 18:36:44;;;;;;;7.10;6.30;;;16.50;82.30;;;;;;4995783;28;20512;-65
2021/03/26 18:39:24;;;;;;;7.73;6.20;;;16.40;82.60;;;;;;4995541;28;21019;-66
2021/03/26 18:42:26;;;;;;;9.53;5.97;;;16.30;82.70;;;;;;4996049;28;20442;-65
2021/03/26 18:45:10;;;;;;;7.80;5.90;;;16.20;82.90;;;;;;4996257;28;20479;-65
2021/03/26 18:48:12;;;;;;;8.20;5.77;;;16.10;83.40;;;;;;4996033;28;20488;-65
2021/03/26 18:51:02;;;;;;;8.90;6.67;;;16.10;84.50;;;;;;4992889;28;20460;-66
2021/03/26 18:53:53;;;;;;;7.70;6.90;;;16.00;84.50;;;;;;5007242;28;20500;-67
2021/03/26 18:56:32;;;;;;;7.57;6.83;;;15.90;85.00;;;;;;5002342;28;20903;-65